Airport View

Enter AWOS ICAO identifier for current METAR.

ex. KFNL

KIAB 202256Z AUTO 07003KT 10SM OVC008 10/07 A2997 RMK AO2 CIG 007 RWY01 SLP155 T00990073

20 Oct 2020 23:47

Other Area AWOS: KBEC - KAAO - KICT - K3AU

TAF AMD KIAB 201943Z 2019/2124 VRB06KT 9999 SCT007 OVC018 QNH2990INS TEMPO 2019/2102 VRB06KT 8000 -DZ BKN007 BECMG 2102/2103 VRB06KT 9999 SCT005 OVC018 QNH3000INS BECMG 2108/2109 VRB06KT 8000 -DZ BR OVC005 QNH3004INS BECMG 2114/2115 09010G15KT 8000 -DZ BR OVC005 QNH3000INS BECMG 2117/2118 10010G15KT 9999 NSW BKN015 QNH2988INS TX12/2021Z TN08/2111Z